Ana Sayfa
METAR-TAF:

METAR-TAF

Havaalanları :

Eagle River Union Airport

Eagle River, Wisconsin, Amerika Birleşik Devletleri

Enlem: 45-55-54N, Boylam: 089-16-09W, yükseklik: 501 m

Güncel hava durumu gözlemi

Rapor saat 09:15 UTC de 18 dakika önce yapıldı.
Sakin rüzgar
Sıcaklık 16°C
Nem 100%
Basınç 1013 hPa
Görüş mesafesi: 16.1 km
9000 ft yükseklikte parçalı bulutlu

METAR: KEGV 250915Z AUTO 00000KT 10SM SCT090 16/16 A2990 RMK AO2 T01570157

Saat: 04:33 (09:33 UTC)


TAF: eksik

4.000'den fazla havaalanı için hava durumu gözlemleri ve tahminleri (METAR ve TAF raporları).

Kullanılabilir istasyonlar harita üzerinde sarı ve kırmızı noktalarla gösterilir.

İstasyonun adını görmek için fareyi noktanın üzerinde gezdirin.

Sonrasında hava gözlem ve tahminlerini görmek için tıklayın.

Haritayı değiştirmek için: yaklaştırmak için siyah artı işaretli yeşil düğmeye ve uzaklaştırmak için de eksi işaretli düğmeye hızla tıklayın; bitişik haritalar için yeşil okları kullanın.


METAR-TAF: